EPPO/POZ METAR and TAF weather

Enter ICAO airport designator
Station Type Date Time Source
EPPO METAR 2022/08/13 12:30 UTC NOAA

EPPO 131230Z 02004KT 9999 FEW035 26/17 Q1017


Station Type Date Time Source
EPPO Decoded METAR 2022/08/13 12:30 UTC NOAA

Poznan, Poland (EPPO) 52-25N 016-50E 92M
Aug 13, 2022 - 08:30 AM EDT / 2022.08.13 1230 UTC
Wind: from the NNE (020 degrees) at 5 MPH (4 KT):0
Visibility: greater than 7 mile(s):0
Sky conditions: mostly clear
Temperature: 78 F (26 C)
Dew Point: 62 F (17 C)
Relative Humidity: 57%
Pressure (altimeter): 30.03 in. Hg (1017 hPa)
ob: EPPO 131230Z 02004KT 9999 FEW035 26/17 Q1017
cycle: 12

Station Type Date Time Source
EPPO TAF 2022/08/13 12:33 UTC NOAA

TAF EPPO 131130Z 1312/1412 06009KT CAVOK
TEMPO 1312/1316 4000 SHRA BKN011 BKN020CB

Example: see airport list